Time;durP1;ratioP1;P1;durP2;ratioP2;P2;SDS_P1;SDS_P2;PMS_P1;PMS_P2;Temp;Humidity;BMP_temperature;BMP_pressure;BME280_temperature;BME280_humidity;BME280_pressure;Samples;Min_cycle;Max_cycle;Signal;HPM_P1;HPM_P2
2023/08/22 00:01:47;;;;;;;7.00;4.78;;;21.80;91.80;;;;;;5046349;28;20445;-66
2023/08/22 00:04:14;;;;;;;6.80;4.60;;;21.80;93.20;;;;;;5047593;28;20512;-66
2023/08/22 00:06:41;;;;;;;7.00;4.68;;;21.80;93.60;;;;;;5048110;28;20425;-65
2023/08/22 00:09:08;;;;;;;5.10;4.20;;;21.80;93.00;;;;;;5047509;28;20426;-66
2023/08/22 00:11:36;;;;;;;4.85;4.45;;;21.70;92.60;;;;;;5046110;28;20433;-66
2023/08/22 00:14:03;;;;;;;6.80;4.78;;;21.70;93.10;;;;;;5047570;28;20452;-66
2023/08/22 00:16:30;;;;;;;5.32;4.75;;;21.70;93.60;;;;;;5047468;28;20425;-66
2023/08/22 00:18:57;;;;;;;7.00;4.90;;;21.70;93.40;;;;;;5046506;28;20950;-66
2023/08/22 00:21:23;;;;;;;5.18;4.70;;;21.70;92.40;;;;;;5048262;28;20417;-66
2023/08/22 00:23:50;;;;;;;5.35;4.78;;;21.70;92.60;;;;;;5044466;28;20897;-65
2023/08/22 00:26:17;;;;;;;6.88;5.10;;;21.80;93.40;;;;;;5045906;28;20440;-66
2023/08/22 00:28:45;;;;;;;5.68;4.60;;;21.70;93.30;;;;;;5046164;28;20538;-66
2023/08/22 00:31:11;;;;;;;5.90;4.55;;;21.80;93.50;;;;;;5046122;28;20437;-66
2023/08/22 00:33:38;;;;;;;8.68;5.00;;;21.90;93.40;;;;;;5047872;28;20410;-66
2023/08/22 00:36:05;;;;;;;5.22;4.72;;;21.80;93.50;;;;;;5047295;28;20808;-66
2023/08/22 00:38:32;;;;;;;5.68;4.63;;;21.90;93.00;;;;;;5047503;28;20425;-67
2023/08/22 00:40:59;;;;;;;5.18;4.40;;;21.90;92.10;;;;;;5045502;28;20896;-65
2023/08/22 00:43:25;;;;;;;6.10;4.80;;;21.80;92.90;;;;;;5044844;28;20429;-66
2023/08/22 00:45:54;;;;;;;7.00;5.20;;;21.80;93.50;;;;;;5045608;28;20437;-66
2023/08/22 00:48:21;;;;;;;6.85;5.10;;;21.70;93.10;;;;;;5048049;28;20770;-64
2023/08/22 00:50:47;;;;;;;7.43;5.00;;;21.80;93.80;;;;;;5051039;28;20428;-66
2023/08/22 00:53:14;;;;;;;5.47;4.97;;;21.70;93.80;;;;;;5048112;28;20443;-66
2023/08/22 00:55:41;;;;;;;5.20;4.68;;;21.60;94.00;;;;;;5049958;28;20436;-65
2023/08/22 00:58:10;;;;;;;6.85;4.60;;;21.60;94.10;;;;;;5048918;28;20437;-66
2023/08/22 01:00:37;;;;;;;4.93;4.40;;;21.50;94.50;;;;;;5054378;28;20427;-65
2023/08/22 01:03:05;;;;;;;6.25;4.60;;;21.50;94.60;;;;;;5050227;28;20429;-66
2023/08/22 01:05:35;;;;;;;6.90;4.60;;;21.60;95.00;;;;;;5051192;28;20428;-66
2023/08/22 01:08:11;;;;;;;7.20;4.30;;;21.50;94.70;;;;;;5050387;28;20437;-65
2023/08/22 01:10:44;;;;;;;5.18;4.60;;;21.50;94.70;;;;;;5050148;28;20428;-66
2023/08/22 01:13:19;;;;;;;5.53;4.90;;;21.50;94.60;;;;;;5051830;28;20425;-66
2023/08/22 01:15:47;;;;;;;6.82;4.60;;;21.50;94.20;;;;;;5050221;28;20436;-66
2023/08/22 01:18:15;;;;;;;5.65;4.72;;;21.50;94.80;;;;;;5050646;28;20425;-66
2023/08/22 01:20:42;;;;;;;5.88;4.70;;;21.40;94.10;;;;;;5050370;28;20479;-66
2023/08/22 01:23:10;;;;;;;6.70;4.80;;;21.40;94.80;;;;;;5050749;28;20440;-66
2023/08/22 01:25:38;;;;;;;5.95;4.85;;;21.40;95.00;;;;;;5046878;28;20452;-66
2023/08/22 01:28:12;;;;;;;5.07;4.57;;;21.40;94.70;;;;;;5049354;28;20429;-66
2023/08/22 01:30:48;;;;;;;5.95;4.50;;;21.40;95.00;;;;;;5047145;28;20455;-66
2023/08/22 01:33:21;;;;;;;5.60;4.90;;;21.30;94.90;;;;;;5050468;28;20903;-66
2023/08/22 01:35:51;;;;;;;6.47;5.27;;;21.20;94.60;;;;;;5050694;28;20425;-66
2023/08/22 01:38:21;;;;;;;5.75;5.15;;;21.20;94.80;;;;;;5050497;28;20443;-66
2023/08/22 01:40:49;;;;;;;6.45;4.93;;;21.10;95.10;;;;;;5048110;28;20433;-66
2023/08/22 01:43:18;;;;;;;6.63;5.05;;;21.10;95.40;;;;;;5048068;28;20433;-65
2023/08/22 01:45:45;;;;;;;6.10;5.50;;;21.00;95.90;;;;;;5048774;28;20892;-66
2023/08/22 01:48:12;;;;;;;7.03;4.95;;;21.00;95.90;;;;;;5047968;28;20433;-66
2023/08/22 01:50:38;;;;;;;7.03;4.90;;;21.00;95.60;;;;;;5050099;28;20435;-66
2023/08/22 01:53:05;;;;;;;6.07;5.00;;;20.90;96.60;;;;;;5050426;28;20418;-66
2023/08/22 01:55:34;;;;;;;7.72;5.20;;;20.90;96.50;;;;;;5048151;28;20428;-66
2023/08/22 01:58:00;;;;;;;6.20;5.70;;;20.90;96.50;;;;;;5050356;28;20422;-66
2023/08/22 02:00:27;;;;;;;6.40;5.40;;;20.90;96.10;;;;;;5049245;28;20425;-65
2023/08/22 02:02:54;;;;;;;6.15;5.45;;;20.80;95.70;;;;;;5049001;28;21072;-66
2023/08/22 02:05:21;;;;;;;7.38;5.70;;;20.80;96.30;;;;;;5049761;28;20432;-66
2023/08/22 02:07:48;;;;;;;7.05;6.13;;;20.70;96.70;;;;;;5048697;28;20433;-66
2023/08/22 02:10:14;;;;;;;6.28;5.50;;;20.70;96.90;;;;;;5049508;28;20429;-65
2023/08/22 02:12:42;;;;;;;6.93;5.60;;;20.70;97.40;;;;;;5050820;28;20413;-66
2023/08/22 02:15:10;;;;;;;7.28;5.60;;;20.70;98.00;;;;;;5056185;28;20432;-66
2023/08/22 02:17:36;;;;;;;8.20;6.33;;;20.70;98.00;;;;;;5050215;28;20504;-66
2023/08/22 02:20:04;;;;;;;6.63;5.65;;;20.60;97.60;;;;;;5050106;28;20434;-66
2023/08/22 02:22:31;;;;;;;7.70;5.47;;;20.60;97.90;;;;;;5050441;28;20414;-66
2023/08/22 02:24:58;;;;;;;7.15;5.60;;;20.60;97.50;;;;;;5048470;28;20422;-67
2023/08/22 02:27:24;;;;;;;5.60;5.10;;;20.60;97.10;;;;;;5053876;28;20409;-66
2023/08/22 02:29:52;;;;;;;6.47;5.75;;;20.50;98.00;;;;;;5048472;28;20429;-66
2023/08/22 02:32:19;;;;;;;7.50;6.00;;;20.50;97.30;;;;;;5048705;28;20781;-66
2023/08/22 02:34:46;;;;;;;8.20;5.70;;;20.50;97.10;;;;;;5046909;28;20433;-66
2023/08/22 02:37:13;;;;;;;6.97;5.80;;;20.40;97.10;;;;;;5049246;28;20437;-66
2023/08/22 02:39:40;;;;;;;6.82;5.32;;;20.40;98.20;;;;;;5049295;28;20440;-66
2023/08/22 02:42:07;;;;;;;6.28;5.72;;;20.40;98.30;;;;;;5046904;28;20851;-66
2023/08/22 02:44:34;;;;;;;6.82;5.90;;;20.40;98.10;;;;;;5047562;28;20433;-66
2023/08/22 02:47:02;;;;;;;6.70;6.00;;;20.40;98.50;;;;;;5045605;28;20432;-65
2023/08/22 02:49:28;;;;;;;6.93;6.07;;;20.30;98.40;;;;;;5078957;22;20399;-71
2023/08/22 02:51:55;;;;;;;8.50;6.20;;;20.30;98.70;;;;;;5108029;27;20439;-71
2023/08/22 02:54:22;;;;;;;6.88;6.18;;;20.30;99.10;;;;;;5099590;28;20432;-72
2023/08/22 02:56:49;;;;;;;7.82;6.13;;;20.30;99.10;;;;;;5109036;27;20926;-71
2023/08/22 02:59:16;;;;;;;6.57;5.90;;;20.30;98.50;;;;;;5101583;28;20520;-72
2023/08/22 03:01:43;;;;;;;8.57;6.10;;;20.30;98.70;;;;;;5087961;28;20444;-71
2023/08/22 03:04:11;;;;;;;9.07;6.45;;;20.30;99.00;;;;;;5088676;28;20965;-73
2023/08/22 03:06:38;;;;;;;6.97;6.28;;;20.20;98.70;;;;;;5078621;28;20427;-73
2023/08/22 03:09:05;;;;;;;7.00;6.30;;;20.20;98.80;;;;;;5088708;28;20430;-73
2023/08/22 03:11:32;;;;;;;7.03;5.88;;;20.20;98.70;;;;;;5085531;28;20436;-72
2023/08/22 03:13:59;;;;;;;7.65;6.15;;;20.20;99.10;;;;;;5086955;28;20665;-72
2023/08/22 03:16:25;;;;;;;8.80;6.50;;;20.10;99.10;;;;;;5083397;28;20426;-71
2023/08/22 03:18:52;;;;;;;7.32;6.57;;;20.10;99.20;;;;;;5087181;28;20430;-73
2023/08/22 03:21:20;;;;;;;7.03;6.32;;;20.10;98.70;;;;;;5088493;28;20433;-70
2023/08/22 03:23:47;;;;;;;7.53;6.50;;;20.00;98.60;;;;;;5080474;28;20431;-71
2023/08/22 03:26:13;;;;;;;7.20;6.50;;;19.90;99.10;;;;;;5084640;28;20474;-73
2023/08/22 03:28:40;;;;;;;7.40;6.70;;;19.90;98.40;;;;;;5084870;28;20420;-71
2023/08/22 03:31:07;;;;;;;7.80;6.70;;;19.80;98.40;;;;;;5081907;28;20823;-70
2023/08/22 03:33:34;;;;;;;8.35;6.38;;;19.80;98.40;;;;;;5085530;28;20926;-70
2023/08/22 03:36:01;;;;;;;7.00;6.30;;;19.70;99.10;;;;;;5089166;28;20509;-71
2023/08/22 03:38:29;;;;;;;7.53;6.47;;;19.70;99.40;;;;;;5077407;28;20428;-71
2023/08/22 03:40:57;;;;;;;7.50;6.22;;;19.70;99.60;;;;;;5081607;28;20429;-73
2023/08/22 03:43:24;;;;;;;7.30;6.55;;;19.70;99.90;;;;;;5085891;28;20911;-70
2023/08/22 03:45:50;;;;;;;8.98;6.65;;;19.70;99.90;;;;;;5083741;28;20429;-73
2023/08/22 03:48:17;;;;;;;7.45;6.85;;;19.80;99.90;;;;;;5089600;28;20438;-71
2023/08/22 03:50:44;;;;;;;7.47;6.70;;;19.80;99.90;;;;;;5081121;28;20455;-72
2023/08/22 03:53:12;;;;;;;7.43;6.65;;;19.80;99.90;;;;;;5081232;28;20718;-70
2023/08/22 03:55:41;;;;;;;7.82;6.47;;;19.80;99.90;;;;;;5086464;28;20494;-72
2023/08/22 03:58:08;;;;;;;7.03;6.40;;;19.80;99.90;;;;;;5083285;28;20985;-72
2023/08/22 04:00:35;;;;;;;6.85;6.15;;;19.80;99.90;;;;;;5076269;28;20434;-72
2023/08/22 04:03:01;;;;;;;6.70;5.97;;;19.80;99.90;;;;;;5083774;28;20922;-69
2023/08/22 04:05:28;;;;;;;6.90;6.20;;;19.80;99.90;;;;;;5081779;28;20961;-70
2023/08/22 04:07:55;;;;;;;6.88;6.18;;;19.80;99.90;;;;;;5084817;28;20458;-64
2023/08/22 04:10:22;;;;;;;8.35;7.30;;;19.80;99.90;;;;;;5078626;28;20433;-66
2023/08/22 04:12:50;;;;;;;7.43;6.63;;;19.70;99.90;;;;;;5084243;28;20456;-65
2023/08/22 04:15:19;;;;;;;7.13;6.50;;;19.70;99.90;;;;;;5081112;28;20454;-64
2023/08/22 04:17:45;;;;;;;7.78;7.00;;;19.70;99.90;;;;;;5081946;28;20421;-65
2023/08/22 04:20:13;;;;;;;8.95;6.78;;;19.60;99.90;;;;;;5083596;28;20449;-63
2023/08/22 04:22:41;;;;;;;8.43;7.65;;;19.60;99.90;;;;;;5075940;28;20818;-65
2023/08/22 04:25:08;;;;;;;9.50;7.50;;;19.50;99.90;;;;;;5079184;28;20938;-66
2023/08/22 04:27:35;;;;;;;9.85;7.80;;;19.50;99.90;;;;;;5080692;28;20474;-64
2023/08/22 04:30:04;;;;;;;9.73;8.60;;;19.40;99.90;;;;;;5087079;28;20428;-66
2023/08/22 04:32:31;;;;;;;9.70;8.15;;;19.30;99.90;;;;;;5085890;28;20427;-65
2023/08/22 04:34:57;;;;;;;10.27;9.38;;;19.30;99.90;;;;;;5084684;28;20809;-67
2023/08/22 04:37:24;;;;;;;10.43;9.00;;;19.30;99.90;;;;;;5085882;28;20433;-67
2023/08/22 04:39:51;;;;;;;10.75;9.75;;;19.20;99.90;;;;;;5081263;28;20422;-67
2023/08/22 04:42:18;;;;;;;10.48;8.68;;;19.20;99.90;;;;;;5086758;28;20432;-67
2023/08/22 04:44:44;;;;;;;12.60;9.37;;;19.10;99.90;;;;;;5087815;28;20507;-67
2023/08/22 04:47:12;;;;;;;10.50;9.50;;;19.10;99.90;;;;;;5088127;28;20417;-65
2023/08/22 04:49:39;;;;;;;9.67;8.77;;;19.00;99.90;;;;;;5086890;28;20441;-66
2023/08/22 04:52:07;;;;;;;10.65;9.23;;;19.00;99.90;;;;;;5085086;28;20564;-66
2023/08/22 04:54:34;;;;;;;9.60;8.60;;;18.90;99.90;;;;;;5078045;28;20478;-67
2023/08/22 04:57:01;;;;;;;12.50;8.90;;;18.90;99.90;;;;;;5092643;28;20879;-64
2023/08/22 04:59:27;;;;;;;10.43;9.30;;;18.90;99.90;;;;;;5093515;28;20469;-66
2023/08/22 05:01:54;;;;;;;10.45;9.35;;;18.90;99.90;;;;;;5088001;28;20454;-69
2023/08/22 05:04:22;;;;;;;12.13;9.88;;;18.90;99.90;;;;;;5081110;28;20445;-70
2023/08/22 05:06:49;;;;;;;10.00;9.00;;;19.00;99.90;;;;;;5085043;28;20429;-68
2023/08/22 05:09:16;;;;;;;10.32;9.20;;;19.10;99.90;;;;;;5079151;28;20935;-68
2023/08/22 05:11:43;;;;;;;10.70;9.40;;;19.20;99.90;;;;;;5090181;28;20785;-69
2023/08/22 05:14:11;;;;;;;10.38;9.00;;;19.20;99.90;;;;;;5088699;28;20410;-68
2023/08/22 05:16:38;;;;;;;10.20;8.90;;;19.20;99.90;;;;;;5085132;28;20426;-67
2023/08/22 05:19:06;;;;;;;13.25;10.00;;;19.30;99.90;;;;;;5079438;28;20435;-66
2023/08/22 05:21:34;;;;;;;12.00;9.88;;;19.30;99.90;;;;;;5080704;28;20422;-66
2023/08/22 05:24:00;;;;;;;12.10;9.20;;;19.40;99.90;;;;;;5076589;28;20408;-66
2023/08/22 05:26:27;;;;;;;10.95;9.30;;;19.40;99.90;;;;;;5081575;28;20433;-67
2023/08/22 05:28:54;;;;;;;10.90;9.80;;;19.30;99.90;;;;;;5075131;28;20411;-68
2023/08/22 05:31:21;;;;;;;11.55;10.55;;;19.30;99.90;;;;;;5077049;28;20639;-68
2023/08/22 05:33:47;;;;;;;12.60;10.52;;;19.30;99.90;;;;;;5084633;28;20422;-67
2023/08/22 05:36:14;;;;;;;11.50;10.40;;;19.30;99.90;;;;;;5089491;28;20415;-67
2023/08/22 05:38:42;;;;;;;11.68;9.77;;;19.30;99.90;;;;;;5083151;28;20426;-67
2023/08/22 05:41:09;;;;;;;11.80;10.18;;;19.30;99.90;;;;;;5080299;28;20433;-67
2023/08/22 05:43:36;;;;;;;11.40;10.30;;;19.30;99.90;;;;;;5083767;28;20417;-67
2023/08/22 05:46:03;;;;;;;10.15;9.20;;;19.30;99.90;;;;;;5083494;28;20409;-65
2023/08/22 05:48:30;;;;;;;12.13;10.30;;;19.30;99.90;;;;;;5085514;28;20652;-67
2023/08/22 05:50:57;;;;;;;13.30;10.50;;;19.30;99.90;;;;;;5087016;28;20951;-66
2023/08/22 05:53:24;;;;;;;11.60;10.50;;;19.40;99.90;;;;;;5084378;28;20429;-67
2023/08/22 05:55:52;;;;;;;12.30;11.00;;;19.40;99.90;;;;;;5090687;28;20429;-68
2023/08/22 05:58:19;;;;;;;11.05;9.95;;;19.40;99.90;;;;;;5088925;28;20480;-68
2023/08/22 06:00:46;;;;;;;11.00;9.90;;;19.40;99.90;;;;;;5088226;28;20421;-67
2023/08/22 06:03:13;;;;;;;10.75;9.75;;;19.50;99.90;;;;;;5091239;28;20438;-68
2023/08/22 06:05:39;;;;;;;11.88;10.50;;;19.50;99.90;;;;;;5087379;28;20418;-68
2023/08/22 06:08:06;;;;;;;12.48;10.80;;;19.60;99.80;;;;;;5087009;28;20432;-67
2023/08/22 06:10:33;;;;;;;12.57;10.80;;;19.70;99.70;;;;;;5085035;28;20900;-66
2023/08/22 06:13:01;;;;;;;11.67;10.30;;;19.70;99.30;;;;;;5089669;28;20437;-67
2023/08/22 06:15:28;;;;;;;12.25;10.48;;;19.70;99.40;;;;;;5075248;28;20417;-67
2023/08/22 06:17:55;;;;;;;12.10;9.77;;;19.80;99.90;;;;;;5081188;28;20428;-68
2023/08/22 06:20:21;;;;;;;10.40;9.37;;;19.80;99.60;;;;;;5089713;28;20429;-68
2023/08/22 06:22:48;;;;;;;11.20;9.93;;;19.90;99.50;;;;;;5079028;28;20423;-66
2023/08/22 06:25:15;;;;;;;11.30;9.20;;;20.00;99.40;;;;;;5088087;28;20908;-66
2023/08/22 06:27:42;;;;;;;11.52;9.60;;;20.10;99.70;;;;;;5089655;28;20486;-66
2023/08/22 06:30:11;;;;;;;11.30;10.30;;;20.20;99.20;;;;;;5088851;28;20449;-68
2023/08/22 06:32:38;;;;;;;9.30;8.40;;;20.20;98.90;;;;;;5079695;28;21194;-67
2023/08/22 06:35:05;;;;;;;11.82;9.55;;;20.30;99.00;;;;;;5080696;28;20433;-65
2023/08/22 06:37:32;;;;;;;9.83;8.60;;;20.30;98.90;;;;;;5081704;28;20438;-66
2023/08/22 06:39:59;;;;;;;9.90;8.60;;;20.50;99.10;;;;;;5082509;28;20433;-66
2023/08/22 06:42:25;;;;;;;12.05;9.90;;;20.60;98.70;;;;;;5083446;28;20864;-64
2023/08/22 06:44:52;;;;;;;10.30;9.30;;;20.70;98.10;;;;;;5085684;28;20434;-67
2023/08/22 06:47:20;;;;;;;11.33;9.87;;;20.80;97.80;;;;;;5086612;28;20595;-65
2023/08/22 06:49:47;;;;;;;11.93;8.73;;;20.90;96.30;;;;;;5081130;28;20594;-64
2023/08/22 06:52:14;;;;;;;9.77;8.80;;;21.00;96.00;;;;;;5083122;28;20485;-69
2023/08/22 06:54:41;;;;;;;10.18;9.15;;;21.00;95.60;;;;;;5084093;28;20800;-67
2023/08/22 06:57:08;;;;;;;10.50;9.40;;;21.10;95.80;;;;;;5081446;28;20750;-67
2023/08/22 06:59:34;;;;;;;13.10;9.43;;;21.20;95.30;;;;;;5085866;28;20434;-67
2023/08/22 07:02:01;;;;;;;9.98;8.98;;;21.20;95.30;;;;;;5081910;28;20438;-65
2023/08/22 07:04:31;;;;;;;9.80;8.90;;;21.30;95.40;;;;;;5089462;28;20414;-67
2023/08/22 07:06:58;;;;;;;11.38;9.50;;;21.50;94.90;;;;;;5088284;28;20430;-68
2023/08/22 07:09:26;;;;;;;9.30;8.30;;;21.60;94.10;;;;;;5085878;28;20425;-67
2023/08/22 07:11:52;;;;;;;9.80;8.68;;;21.70;94.00;;;;;;5086630;28;20941;-66
2023/08/22 07:14:19;;;;;;;10.27;9.27;;;21.80;93.50;;;;;;5088248;28;20433;-67
2023/08/22 07:16:46;;;;;;;10.68;9.57;;;21.80;93.10;;;;;;5089492;28;20452;-67
2023/08/22 07:19:13;;;;;;;13.10;9.70;;;21.80;92.50;;;;;;5080776;28;20435;-68
2023/08/22 07:21:41;;;;;;;10.23;9.15;;;21.80;93.00;;;;;;5079735;28;20796;-69
2023/08/22 07:24:07;;;;;;;9.50;8.60;;;21.70;92.90;;;;;;5089666;28;20513;-71
2023/08/22 07:26:34;;;;;;;9.52;8.52;;;21.70;93.20;;;;;;5086796;28;20432;-71
2023/08/22 07:29:01;;;;;;;9.63;8.00;;;21.80;93.40;;;;;;5083177;28;20412;-72
2023/08/22 07:31:27;;;;;;;10.90;9.30;;;21.80;93.40;;;;;;5087826;28;20436;-75
2023/08/22 07:33:54;;;;;;;9.90;8.60;;;21.90;93.00;;;;;;5088263;28;20449;-69
2023/08/22 07:36:21;;;;;;;10.25;9.15;;;22.00;92.50;;;;;;5081001;28;20433;-67
2023/08/22 07:38:49;;;;;;;13.38;9.10;;;22.20;92.70;;;;;;5097473;28;20433;-67
2023/08/22 07:41:16;;;;;;;12.43;8.90;;;22.40;92.30;;;;;;5106249;28;20421;-67
2023/08/22 07:43:43;;;;;;;11.13;8.10;;;22.60;92.30;;;;;;5105317;28;20425;-68
2023/08/22 07:46:09;;;;;;;10.07;8.40;;;22.70;91.90;;;;;;5089708;28;20912;-67
2023/08/22 07:48:36;;;;;;;9.23;8.32;;;22.90;93.00;;;;;;5083010;28;20421;-67
2023/08/22 07:51:03;;;;;;;9.13;6.83;;;23.00;92.50;;;;;;5087014;28;20433;-70
2023/08/22 07:53:30;;;;;;;6.78;5.60;;;23.20;92.20;;;;;;5090295;28;20405;-71
2023/08/22 07:55:59;;;;;;;9.43;8.40;;;23.30;91.60;;;;;;5089949;28;20887;-71
2023/08/22 07:58:25;;;;;;;10.07;7.55;;;23.30;88.60;;;;;;5087177;28;20474;-72
2023/08/22 08:00:52;;;;;;;8.80;7.90;;;23.40;87.80;;;;;;5088382;28;20458;-71
2023/08/22 08:03:19;;;;;;;8.75;7.38;;;23.50;85.80;;;;;;5089901;28;20442;-71
2023/08/22 08:05:45;;;;;;;8.13;6.60;;;23.50;85.00;;;;;;5102874;28;20436;-70
2023/08/22 08:08:12;;;;;;;6.90;6.20;;;23.50;87.30;;;;;;5088755;28;20426;-71
2023/08/22 08:10:39;;;;;;;8.70;6.40;;;23.50;87.60;;;;;;5082357;28;21014;-71
2023/08/22 08:13:07;;;;;;;11.40;7.63;;;23.50;86.40;;;;;;5084070;28;20766;-70
2023/08/22 08:15:34;;;;;;;10.43;6.80;;;23.60;86.90;;;;;;5076468;28;20437;-70
2023/08/22 08:18:01;;;;;;;8.68;7.43;;;23.60;84.40;;;;;;5084621;28;20888;-69
2023/08/22 08:20:28;;;;;;;9.30;6.90;;;23.60;84.10;;;;;;5078146;28;20411;-71
2023/08/22 08:22:54;;;;;;;10.55;7.20;;;23.70;84.80;;;;;;5085708;28;20422;-70
2023/08/22 08:25:21;;;;;;;7.55;6.20;;;23.70;82.80;;;;;;5087139;28;20429;-69
2023/08/22 08:27:48;;;;;;;8.02;7.10;;;23.80;83.50;;;;;;5082679;28;20430;-68
2023/08/22 08:30:16;;;;;;;11.23;7.53;;;23.90;81.20;;;;;;5086888;28;20417;-69
2023/08/22 08:32:43;;;;;;;8.73;6.57;;;23.90;80.40;;;;;;5087493;28;20422;-69
2023/08/22 08:35:09;;;;;;;12.20;6.72;;;23.90;79.80;;;;;;5087054;28;20430;-71
2023/08/22 08:37:36;;;;;;;9.00;6.23;;;24.10;78.40;;;;;;5088649;28;20775;-69
2023/08/22 08:40:06;;;;;;;7.40;5.80;;;24.10;78.60;;;;;;5084393;28;20517;-70
2023/08/22 08:42:36;;;;;;;6.78;4.50;;;24.20;78.30;;;;;;5087838;28;20451;-69
2023/08/22 08:45:04;;;;;;;10.63;6.70;;;24.20;79.90;;;;;;5085537;28;20568;-69
2023/08/22 08:47:33;;;;;;;8.15;6.15;;;24.30;79.00;;;;;;5087805;28;20899;-69
2023/08/22 08:50:04;;;;;;;6.68;4.82;;;24.40;78.00;;;;;;5115006;22;20414;-63
2023/08/22 08:52:31;;;;;;;7.33;4.30;;;24.50;79.70;;;;;;5061098;28;20426;-65
2023/08/22 08:54:59;;;;;;;6.40;4.10;;;24.50;80.40;;;;;;5060218;28;20423;-68
2023/08/22 08:57:26;;;;;;;7.20;4.10;;;24.60;80.70;;;;;;5062063;28;20486;-64
2023/08/22 08:59:53;;;;;;;6.10;4.10;;;24.60;78.90;;;;;;5061588;28;20416;-64
2023/08/22 09:02:20;;;;;;;5.55;4.00;;;24.70;77.60;;;;;;5060155;28;20776;-65
2023/08/22 09:04:49;;;;;;;5.60;3.92;;;24.80;78.30;;;;;;5067985;28;20414;-65
2023/08/22 09:07:17;;;;;;;8.02;4.47;;;24.80;77.50;;;;;;5062771;28;20428;-65
2023/08/22 09:09:44;;;;;;;5.60;3.80;;;24.80;78.00;;;;;;5058381;28;20884;-65
2023/08/22 09:12:13;;;;;;;4.85;3.80;;;25.00;76.80;;;;;;5064951;28;20434;-65
2023/08/22 09:14:41;;;;;;;6.82;5.20;;;25.10;76.10;;;;;;5064192;28;20428;-67
2023/08/22 09:17:08;;;;;;;6.20;3.90;;;25.20;75.00;;;;;;5059676;28;20407;-65
2023/08/22 09:19:35;;;;;;;7.50;3.50;;;25.50;74.20;;;;;;5067067;28;20439;-67
2023/08/22 09:22:04;;;;;;;4.97;3.25;;;25.70;74.00;;;;;;5063385;28;20431;-65
2023/08/22 09:24:32;;;;;;;5.20;3.15;;;25.80;73.70;;;;;;5062034;28;20813;-66
2023/08/22 09:27:03;;;;;;;4.80;3.53;;;25.90;73.10;;;;;;5065382;28;20457;-70
2023/08/22 09:29:31;;;;;;;6.15;3.85;;;26.00;71.40;;;;;;5056504;28;20565;-70
2023/08/22 09:32:03;;;;;;;3.80;3.20;;;26.20;69.60;;;;;;5068821;28;20422;-70
2023/08/22 09:34:30;;;;;;;6.25;3.70;;;26.30;69.90;;;;;;5061094;28;20413;-70
2023/08/22 09:36:57;;;;;;;5.23;3.53;;;26.40;68.30;;;;;;5070889;28;21008;-69
2023/08/22 09:39:26;;;;;;;5.38;3.72;;;26.50;67.90;;;;;;5068148;28;20433;-69
2023/08/22 09:41:54;;;;;;;6.20;3.83;;;26.60;67.80;;;;;;5066167;28;20431;-69
2023/08/22 09:44:24;;;;;;;5.13;3.20;;;26.60;66.80;;;;;;5060401;28;20433;-70
2023/08/22 09:46:51;;;;;;;5.47;3.22;;;26.70;67.30;;;;;;5058336;28;20429;-70
2023/08/22 09:49:19;;;;;;;4.45;2.80;;;26.80;66.80;;;;;;5067734;28;20429;-69
2023/08/22 09:51:46;;;;;;;5.13;3.13;;;27.10;66.30;;;;;;5070871;28;20404;-70
2023/08/22 09:54:14;;;;;;;5.38;2.70;;;27.10;65.60;;;;;;5069888;28;20431;-70
2023/08/22 09:56:43;;;;;;;3.85;3.10;;;27.10;64.30;;;;;;5058019;28;20423;-70
2023/08/22 09:59:13;;;;;;;5.47;2.90;;;27.20;61.50;;;;;;5060817;28;20432;-71
2023/08/22 10:01:40;;;;;;;4.65;2.80;;;27.20;63.40;;;;;;5058005;28;20431;-71
2023/08/22 10:04:07;;;;;;;6.35;3.05;;;27.10;63.80;;;;;;5057796;28;20431;-71
2023/08/22 10:06:36;;;;;;;6.57;3.95;;;27.00;64.00;;;;;;5065745;28;20428;-71
2023/08/22 10:09:08;;;;;;;5.22;3.20;;;27.10;62.50;;;;;;5058570;28;20458;-71
2023/08/22 10:11:40;;;;;;;5.28;2.90;;;27.30;62.30;;;;;;5067238;28;20495;-71
2023/08/22 10:14:13;;;;;;;5.25;3.20;;;27.40;62.20;;;;;;5066875;28;20431;-71
2023/08/22 10:16:40;;;;;;;7.40;3.67;;;27.30;62.70;;;;;;5063680;28;20418;-71
2023/08/22 10:19:09;;;;;;;3.83;2.50;;;27.30;60.50;;;;;;5051414;28;20417;-71
2023/08/22 10:21:42;;;;;;;5.47;2.92;;;27.50;61.00;;;;;;5052131;28;20431;-72
2023/08/22 10:24:20;;;;;;;4.10;2.63;;;27.70;60.60;;;;;;5069491;28;20412;-71
2023/08/22 10:26:48;;;;;;;3.95;2.40;;;27.70;60.90;;;;;;5061831;28;20518;-71
2023/08/22 10:29:18;;;;;;;4.83;2.33;;;27.80;59.10;;;;;;5063495;28;20435;-71
2023/08/22 10:32:23;;;;;;;5.55;2.97;;;28.00;57.70;;;;;;5061793;28;20424;-71
2023/08/22 10:35:18;;;;;;;5.20;2.90;;;28.20;57.60;;;;;;5058815;28;20427;-71
2023/08/22 10:37:47;;;;;;;4.97;2.75;;;28.20;57.20;;;;;;5052250;28;20637;-72
2023/08/22 10:40:31;;;;;;;4.70;2.90;;;27.90;58.20;;;;;;5060903;28;20786;-71
2023/08/22 10:43:09;;;;;;;5.78;3.65;;;27.60;59.10;;;;;;5056799;28;20471;-71
2023/08/22 10:45:42;;;;;;;4.97;3.00;;;27.50;59.10;;;;;;5059157;28;20820;-71
2023/08/22 10:48:13;;;;;;;3.90;3.15;;;27.40;60.20;;;;;;5053214;28;20431;-72
2023/08/22 10:50:44;;;;;;;4.50;3.05;;;27.40;60.50;;;;;;5049916;28;20938;-73
2023/08/22 10:53:22;;;;;;;4.88;3.60;;;27.30;60.50;;;;;;5062346;28;20422;-72
2023/08/22 10:55:50;;;;;;;3.88;3.00;;;27.40;58.80;;;;;;5062037;28;20519;-73
2023/08/22 10:58:37;;;;;;;5.07;3.50;;;27.40;59.00;;;;;;5068003;28;20600;-73
2023/08/22 11:01:08;;;;;;;4.15;3.22;;;27.40;59.70;;;;;;5058987;28;20671;-71
2023/08/22 11:03:35;;;;;;;4.35;3.15;;;27.40;59.60;;;;;;5060968;28;20428;-72
2023/08/22 11:06:02;;;;;;;4.55;3.00;;;27.40;59.50;;;;;;5055242;28;20463;-70
2023/08/22 11:08:29;;;;;;;6.43;3.17;;;27.30;60.70;;;;;;5059260;28;20980;-73
2023/08/22 11:10:58;;;;;;;4.10;3.10;;;27.10;60.40;;;;;;5059249;28;20433;-74
2023/08/22 11:13:36;;;;;;;5.73;4.30;;;27.00;60.00;;;;;;5057362;28;20424;-67
2023/08/22 11:16:03;;;;;;;5.53;3.63;;;27.00;58.80;;;;;;5066361;28;20939;-68
2023/08/22 11:18:32;;;;;;;5.25;3.50;;;27.00;58.10;;;;;;5063357;28;20423;-72
2023/08/22 11:20:59;;;;;;;5.40;3.10;;;26.90;60.00;;;;;;5063754;28;20446;-70
2023/08/22 11:23:26;;;;;;;6.53;3.33;;;26.90;60.90;;;;;;5061626;28;20433;-70
2023/08/22 11:25:52;;;;;;;5.00;2.92;;;26.80;62.10;;;;;;5060120;28;20431;-72
2023/08/22 11:28:30;;;;;;;4.20;2.70;;;26.70;62.50;;;;;;5055794;28;20933;-71
2023/08/22 11:30:57;;;;;;;3.45;2.63;;;26.70;61.50;;;;;;5054672;28;20460;-71
2023/08/22 11:33:24;;;;;;;5.68;2.67;;;26.70;61.60;;;;;;5057776;28;20451;-71
2023/08/22 11:35:53;;;;;;;4.38;2.47;;;26.80;60.10;;;;;;5061538;28;20425;-72
2023/08/22 11:38:20;;;;;;;3.83;2.50;;;26.90;61.70;;;;;;5058236;28;20423;-71
2023/08/22 11:40:47;;;;;;;4.10;2.95;;;26.80;62.10;;;;;;5065377;28;20986;-73
2023/08/22 11:43:15;;;;;;;5.57;3.70;;;26.90;61.50;;;;;;5052095;28;21181;-71
2023/08/22 11:45:46;;;;;;;22.27;20.48;;;26.90;61.20;;;;;;5054868;28;20551;-71
2023/08/22 11:48:15;;;;;;;5.65;3.90;;;26.90;62.30;;;;;;5062849;28;20488;-70
2023/08/22 11:50:43;;;;;;;15.23;13.68;;;27.00;56.50;;;;;;5059838;28;20436;-70
2023/08/22 11:53:13;;;;;;;16.10;14.60;;;27.20;58.40;;;;;;5060352;28;20775;-71
2023/08/22 11:55:43;;;;;;;7.53;6.82;;;27.30;58.00;;;;;;5063218;28;20919;-72
2023/08/22 11:58:12;;;;;;;5.95;3.80;;;27.50;56.00;;;;;;5059154;28;20869;-72
2023/08/22 12:00:40;;;;;;;6.05;4.50;;;27.80;52.30;;;;;;5056091;28;20495;-71
2023/08/22 12:03:06;;;;;;;6.65;4.60;;;28.10;52.00;;;;;;5066327;28;20423;-71
2023/08/22 12:05:34;;;;;;;5.97;5.35;;;28.30;51.60;;;;;;5064351;28;20456;-68
2023/08/22 12:08:16;;;;;;;6.05;4.30;;;28.30;52.60;;;;;;5057655;28;20432;-69
2023/08/22 12:10:46;;;;;;;4.70;2.80;;;28.30;51.40;;;;;;5062786;28;20429;-70
2023/08/22 12:13:14;;;;;;;6.85;3.45;;;28.60;47.20;;;;;;5053992;28;21265;-66
2023/08/22 12:15:41;;;;;;;5.50;2.38;;;28.90;45.30;;;;;;5059637;28;20439;-68
2023/08/22 12:18:08;;;;;;;4.20;2.67;;;29.20;45.10;;;;;;5062899;28;20427;-67
2023/08/22 12:20:37;;;;;;;3.70;2.60;;;29.50;46.20;;;;;;5060501;28;20466;-69
2023/08/22 12:23:04;;;;;;;4.38;2.30;;;29.60;45.80;;;;;;5060447;28;20466;-66
2023/08/22 12:25:31;;;;;;;3.45;2.03;;;29.70;46.00;;;;;;5058607;28;20460;-68
2023/08/22 12:27:59;;;;;;;3.45;2.10;;;29.60;46.60;;;;;;5062181;28;20442;-71
2023/08/22 12:30:26;;;;;;;2.90;1.90;;;29.60;46.40;;;;;;5063850;28;20427;-70
2023/08/22 12:32:52;;;;;;;2.80;2.00;;;29.40;46.20;;;;;;5062211;28;21159;-70
2023/08/22 12:35:19;;;;;;;2.80;2.08;;;29.30;45.90;;;;;;5065561;28;20435;-69
2023/08/22 12:37:46;;;;;;;4.82;2.83;;;29.30;44.90;;;;;;5060478;28;20520;-70
2023/08/22 12:40:12;;;;;;;5.43;2.90;;;29.30;45.80;;;;;;5057722;28;20423;-70
2023/08/22 12:42:40;;;;;;;4.45;2.20;;;29.30;46.40;;;;;;5057508;28;20433;-70
2023/08/22 12:45:10;;;;;;;4.68;2.20;;;29.10;47.30;;;;;;5063506;28;20411;-70
2023/08/22 12:47:37;;;;;;;3.97;2.40;;;28.90;46.20;;;;;;5071333;28;20426;-70